createdAt,value
2024-01-06T00:01:16.559Z,13.68
2024-01-06T00:03:44.103Z,12.43
2024-01-06T00:06:17.163Z,13.60
2024-01-06T00:08:44.037Z,12.75
2024-01-06T00:11:11.387Z,13.13
2024-01-06T00:13:38.236Z,13.70
2024-01-06T00:16:05.304Z,14.38
2024-01-06T00:18:32.354Z,13.77
2024-01-06T00:21:00.270Z,14.55
2024-01-06T00:23:27.058Z,15.07
2024-01-06T00:25:53.810Z,13.82
2024-01-06T00:28:20.568Z,15.40
2024-01-06T00:30:47.434Z,15.02
2024-01-06T00:33:14.585Z,14.85
2024-01-06T00:35:41.561Z,12.98
2024-01-06T00:38:08.393Z,13.57
2024-01-06T00:40:35.153Z,13.00
2024-01-06T00:43:01.975Z,13.65
2024-01-06T00:45:28.807Z,13.27
2024-01-06T00:47:55.929Z,13.23
2024-01-06T00:50:22.889Z,14.75
2024-01-06T00:52:53.366Z,14.23
2024-01-06T00:55:21.100Z,13.80
2024-01-06T00:57:47.959Z,13.50
2024-01-06T01:00:15.300Z,14.27
2024-01-06T01:02:42.373Z,14.40
2024-01-06T01:05:09.474Z,14.23
2024-01-06T01:07:36.331Z,14.30
2024-01-06T01:10:03.221Z,15.00
2024-01-06T01:12:30.051Z,12.70
2024-01-06T01:14:57.554Z,15.38
2024-01-06T01:17:24.477Z,13.15
2024-01-06T01:19:51.425Z,15.63
2024-01-06T01:22:18.281Z,14.82
2024-01-06T01:24:45.117Z,13.50
2024-01-06T01:27:12.029Z,14.13
2024-01-06T01:29:39.093Z,13.73
2024-01-06T01:32:06.660Z,14.27
2024-01-06T01:34:33.899Z,13.65
2024-01-06T01:37:01.127Z,13.15
2024-01-06T01:39:28.164Z,17.38
2024-01-06T01:41:55.113Z,13.73
2024-01-06T01:44:22.028Z,14.02
2024-01-06T01:46:49.594Z,12.50
2024-01-06T01:49:17.180Z,13.52
2024-01-06T01:51:45.497Z,14.00
2024-01-06T01:54:12.921Z,13.52
2024-01-06T01:56:41.232Z,13.05
2024-01-06T01:59:14.970Z,12.38
2024-01-06T02:01:42.203Z,13.32
2024-01-06T02:04:12.315Z,14.45
2024-01-06T02:06:39.294Z,14.88
2024-01-06T02:09:06.822Z,12.88
2024-01-06T02:11:34.354Z,15.52
2024-01-06T02:14:01.944Z,13.48
2024-01-06T02:16:28.921Z,12.80
2024-01-06T02:18:55.796Z,13.82
2024-01-06T02:21:23.983Z,14.23
2024-01-06T02:23:51.318Z,14.57
2024-01-06T02:26:18.556Z,13.10
2024-01-06T02:28:48.985Z,14.00
2024-01-06T02:31:16.116Z,13.20
2024-01-06T02:33:43.165Z,13.18
2024-01-06T02:36:10.210Z,12.95
2024-01-06T02:38:37.079Z,12.20
2024-01-06T02:41:04.216Z,12.85
2024-01-06T02:43:31.010Z,12.15
2024-01-06T02:45:57.973Z,12.10
2024-01-06T02:48:24.954Z,11.98
2024-01-06T02:50:52.025Z,12.68
2024-01-06T02:53:18.799Z,11.80
2024-01-06T02:55:45.842Z,11.98
2024-01-06T02:58:12.649Z,12.90
2024-01-06T03:00:39.682Z,12.45
2024-01-06T03:03:06.618Z,11.23
2024-01-06T03:05:33.525Z,11.73
2024-01-06T03:08:00.427Z,12.38
2024-01-06T03:10:27.769Z,11.90
2024-01-06T03:12:55.265Z,11.48
2024-01-06T03:15:22.238Z,13.27
2024-01-06T03:17:49.113Z,11.93
2024-01-06T03:20:15.968Z,11.38
2024-01-06T03:22:43.047Z,11.40
2024-01-06T03:25:10.162Z,11.90
2024-01-06T03:27:37.002Z,11.30
2024-01-06T03:30:04.899Z,12.32
2024-01-06T03:32:32.015Z,13.68
2024-01-06T03:34:58.944Z,12.63
2024-01-06T03:37:26.398Z,14.70
2024-01-06T03:39:53.224Z,12.70
2024-01-06T03:42:20.250Z,12.27
2024-01-06T03:44:47.195Z,12.43
2024-01-06T03:47:14.004Z,12.98
2024-01-06T03:49:40.804Z,13.52
2024-01-06T03:52:07.695Z,11.68
2024-01-06T03:54:34.739Z,11.70
2024-01-06T03:57:01.518Z,11.77
2024-01-06T03:59:28.345Z,12.70
2024-01-06T04:01:55.116Z,13.43
2024-01-06T04:04:22.036Z,12.70
2024-01-06T04:06:48.951Z,11.50
2024-01-06T04:09:18.622Z,11.98
2024-01-06T04:11:45.894Z,11.63
2024-01-06T04:14:12.709Z,12.35
2024-01-06T04:16:39.464Z,12.68
2024-01-06T04:19:08.691Z,12.88
2024-01-06T04:21:35.664Z,13.80
2024-01-06T04:24:02.461Z,13.73
2024-01-06T04:26:29.236Z,12.68
2024-01-06T04:28:56.054Z,12.27
2024-01-06T04:31:23.003Z,12.77
2024-01-06T04:33:50.068Z,12.38
2024-01-06T04:36:17.033Z,13.23
2024-01-06T04:38:43.892Z,12.00
2024-01-06T04:41:10.686Z,15.43
2024-01-06T04:43:37.460Z,14.25
2024-01-06T04:46:04.388Z,13.45
2024-01-06T04:48:31.216Z,12.70
2024-01-06T04:50:58.061Z,13.07
2024-01-06T04:53:24.860Z,11.85
2024-01-06T04:55:51.696Z,13.20
2024-01-06T04:58:18.437Z,12.25
2024-01-06T05:00:45.441Z,12.00
2024-01-06T05:03:12.359Z,11.98
2024-01-06T05:05:39.285Z,12.43
2024-01-06T05:08:06.310Z,13.05
2024-01-06T05:10:33.206Z,11.90
2024-01-06T05:12:59.997Z,13.50
2024-01-06T05:15:26.921Z,12.55
2024-01-06T05:17:53.889Z,12.48
2024-01-06T05:20:20.723Z,13.52
2024-01-06T05:22:47.585Z,14.25
2024-01-06T05:25:14.488Z,13.27
2024-01-06T05:27:41.341Z,12.57
2024-01-06T05:30:09.480Z,12.88
2024-01-06T05:32:37.875Z,11.90
2024-01-06T05:35:05.297Z,14.18
2024-01-06T05:37:33.699Z,13.48
2024-01-06T05:40:03.011Z,11.25
2024-01-06T05:42:29.814Z,11.95
2024-01-06T05:44:56.642Z,12.88
2024-01-06T05:47:23.461Z,13.88
2024-01-06T05:49:50.260Z,13.45
2024-01-06T05:52:17.239Z,13.27
2024-01-06T05:54:44.167Z,14.63
2024-01-06T05:57:11.383Z,12.50
2024-01-06T05:59:38.558Z,11.98
2024-01-06T06:02:05.417Z,12.40
2024-01-06T06:04:32.458Z,12.25
2024-01-06T06:07:01.911Z,11.63
2024-01-06T06:09:30.010Z,12.65
2024-01-06T06:11:56.887Z,13.13
2024-01-06T06:14:25.884Z,13.55
2024-01-06T06:16:54.201Z,12.52
2024-01-06T06:19:21.807Z,13.68
2024-01-06T06:21:48.858Z,14.45
2024-01-06T06:24:15.701Z,13.98
2024-01-06T06:26:42.674Z,11.40
2024-01-06T06:29:09.576Z,12.50
2024-01-06T06:31:36.439Z,13.10
2024-01-06T06:34:07.418Z,14.00
2024-01-06T06:36:35.829Z,12.25
2024-01-06T06:39:02.977Z,12.52
2024-01-06T06:41:29.705Z,13.55
2024-01-06T06:43:56.836Z,15.98
2024-01-06T06:46:23.604Z,13.18
2024-01-06T06:48:51.584Z,10.85
2024-01-06T06:51:18.421Z,11.80
2024-01-06T06:53:46.065Z,12.45
2024-01-06T06:56:15.469Z,11.32
2024-01-06T06:58:42.247Z,12.30
2024-01-06T07:01:09.070Z,11.80
2024-01-06T07:03:35.933Z,11.65
2024-01-06T07:06:03.498Z,11.45
2024-01-06T07:08:30.265Z,11.07
2024-01-06T07:10:57.795Z,14.65
2024-01-06T07:13:24.551Z,13.95
2024-01-06T07:15:52.376Z,14.45
2024-01-06T07:18:24.313Z,12.43
2024-01-06T07:20:51.196Z,12.65
2024-01-06T07:23:17.962Z,12.70
2024-01-06T07:25:44.739Z,11.68
2024-01-06T07:28:12.355Z,12.93
2024-01-06T07:30:39.216Z,11.93
2024-01-06T07:33:05.999Z,11.40
2024-01-06T07:35:32.816Z,12.00
2024-01-06T07:37:59.875Z,12.05
2024-01-06T07:40:26.835Z,11.35
2024-01-06T07:42:53.786Z,12.05
2024-01-06T07:45:20.640Z,11.70
2024-01-06T07:47:47.612Z,9.98
2024-01-06T07:50:14.450Z,11.85
2024-01-06T07:52:41.226Z,13.20
2024-01-06T07:55:09.140Z,12.45
2024-01-06T07:57:36.066Z,10.80
2024-01-06T08:00:05.936Z,11.48
2024-01-06T08:02:33.150Z,10.95
2024-01-06T08:04:59.981Z,10.63
2024-01-06T08:07:26.846Z,11.52
2024-01-06T08:09:53.622Z,9.80
2024-01-06T08:12:20.408Z,9.27
2024-01-06T08:14:47.230Z,11.32
2024-01-06T08:17:16.399Z,10.43
2024-01-06T08:19:44.580Z,39.28
2024-01-06T08:22:11.366Z,11.10
2024-01-06T08:24:38.130Z,9.95
2024-01-06T08:27:05.867Z,9.13
2024-01-06T08:29:32.984Z,10.18
2024-01-06T08:31:59.863Z,8.95
2024-01-06T08:34:29.468Z,12.63
2024-01-06T08:36:58.231Z,10.95
2024-01-06T08:39:25.866Z,10.35
2024-01-06T08:41:52.657Z,8.85
2024-01-06T08:44:19.465Z,7.90
2024-01-06T08:46:46.208Z,6.03
2024-01-06T08:49:13.060Z,5.18
2024-01-06T08:51:39.909Z,5.82
2024-01-06T08:54:07.037Z,5.88
2024-01-06T08:56:35.166Z,5.30
2024-01-06T08:59:02.415Z,5.25
2024-01-06T09:01:29.339Z,3.75
2024-01-06T09:03:56.286Z,4.22
2024-01-06T09:06:23.134Z,4.97
2024-01-06T09:08:50.484Z,5.55
2024-01-06T09:11:17.247Z,5.70
2024-01-06T09:13:44.027Z,4.93
2024-01-06T09:16:11.797Z,4.97
2024-01-06T09:18:38.675Z,5.47
2024-01-06T09:21:05.650Z,4.47
2024-01-06T09:23:33.068Z,3.90
2024-01-06T09:25:59.941Z,4.90
2024-01-06T09:28:26.671Z,3.72
2024-01-06T09:30:56.133Z,3.33
2024-01-06T09:33:23.919Z,2.40
2024-01-06T09:35:51.966Z,2.47
2024-01-06T09:38:19.706Z,3.20
2024-01-06T09:40:46.922Z,2.35
2024-01-06T09:43:14.166Z,2.97
2024-01-06T09:45:41.205Z,2.88
2024-01-06T09:48:15.717Z,4.40
2024-01-06T09:50:44.034Z,3.80
2024-01-06T09:53:12.203Z,2.65
2024-01-06T09:55:39.866Z,3.10
2024-01-06T09:58:10.460Z,3.20
2024-01-06T10:00:37.490Z,2.45
2024-01-06T10:03:04.455Z,2.92
2024-01-06T10:05:32.008Z,2.80
2024-01-06T10:08:00.163Z,2.63
2024-01-06T10:10:28.277Z,2.25
2024-01-06T10:12:56.503Z,2.33
2024-01-06T10:15:23.444Z,2.63
2024-01-06T10:17:51.516Z,2.20
2024-01-06T10:20:18.949Z,2.08
2024-01-06T10:22:46.651Z,1.45
2024-01-06T10:25:13.926Z,1.92
2024-01-06T10:27:42.112Z,1.90
2024-01-06T10:30:10.524Z,1.77
2024-01-06T10:32:38.217Z,2.20
2024-01-06T10:35:07.772Z,2.20
2024-01-06T10:37:34.818Z,2.30
2024-01-06T10:40:17.946Z,2.20
2024-01-06T10:42:46.395Z,1.98
2024-01-06T10:45:16.666Z,2.40
2024-01-06T10:47:45.293Z,2.00
2024-01-06T10:50:14.267Z,2.60
2024-01-06T10:52:42.791Z,1.90
2024-01-06T10:55:10.445Z,2.90
2024-01-06T10:57:39.266Z,2.88
2024-01-06T11:00:07.046Z,2.22
2024-01-06T11:02:35.140Z,2.92
2024-01-06T11:05:02.084Z,2.15
2024-01-06T11:07:29.559Z,2.30
2024-01-06T11:10:03.777Z,2.30
2024-01-06T11:12:30.948Z,1.60
2024-01-06T11:14:57.896Z,1.70
2024-01-06T11:17:57.480Z,2.17
2024-01-06T11:20:24.798Z,1.92
2024-01-06T11:22:52.256Z,1.30
2024-01-06T11:25:21.320Z,1.80
2024-01-06T11:27:51.952Z,2.08
2024-01-06T11:30:22.742Z,1.40
2024-01-06T11:32:49.816Z,1.40
2024-01-06T11:35:17.380Z,1.30
2024-01-06T11:37:44.281Z,0.93
2024-01-06T11:40:15.002Z,1.67
2024-01-06T11:42:46.880Z,1.52
2024-01-06T11:45:14.800Z,1.60
2024-01-06T11:47:48.385Z,1.30
2024-01-06T11:50:15.653Z,1.15
2024-01-06T11:52:42.511Z,1.60
2024-01-06T11:55:11.007Z,1.40
2024-01-06T11:57:37.999Z,1.23
2024-01-06T12:00:05.886Z,1.25
2024-01-06T12:02:32.688Z,1.20
2024-01-06T12:04:59.877Z,1.00
2024-01-06T12:07:29.451Z,1.30
2024-01-06T12:10:04.740Z,0.77
2024-01-06T12:12:31.550Z,1.30
2024-01-06T12:14:58.451Z,0.82
2024-01-06T12:17:30.189Z,1.35
2024-01-06T12:19:57.101Z,1.60
2024-01-06T12:22:24.431Z,1.45
2024-01-06T12:24:52.143Z,1.40
2024-01-06T12:27:19.781Z,1.88
2024-01-06T12:29:46.612Z,1.90
2024-01-06T12:32:14.868Z,2.58
2024-01-06T12:34:41.965Z,4.40
2024-01-06T12:37:09.125Z,2.88
2024-01-06T12:39:36.210Z,2.63
2024-01-06T12:42:03.461Z,1.80
2024-01-06T12:44:30.398Z,1.55
2024-01-06T12:46:57.259Z,1.42
2024-01-06T12:49:24.615Z,1.70
2024-01-06T12:51:51.765Z,1.98
2024-01-06T12:54:18.690Z,1.50
2024-01-06T12:56:45.601Z,1.33
2024-01-06T12:59:12.481Z,1.90
2024-01-06T13:01:40.407Z,2.83
2024-01-06T13:04:07.673Z,2.20
2024-01-06T13:06:35.730Z,1.50
2024-01-06T13:09:07.264Z,1.60
2024-01-06T13:11:36.841Z,1.33
2024-01-06T13:14:03.660Z,1.52
2024-01-06T13:16:30.591Z,2.30
2024-01-06T13:18:57.542Z,1.95
2024-01-06T13:21:25.423Z,1.95
2024-01-06T13:23:52.547Z,1.73
2024-01-06T13:26:19.451Z,2.10
2024-01-06T13:28:47.182Z,1.73
2024-01-06T13:31:14.154Z,2.33
2024-01-06T13:33:41.058Z,2.20
2024-01-06T13:36:08.143Z,1.88
2024-01-06T13:38:34.935Z,2.05
2024-01-06T13:41:02.094Z,2.58
2024-01-06T13:43:28.840Z,2.22
2024-01-06T13:45:56.277Z,1.95
2024-01-06T13:48:23.365Z,2.60
2024-01-06T13:50:50.892Z,2.42
2024-01-06T13:53:17.642Z,3.00
2024-01-06T13:55:45.515Z,2.58
2024-01-06T13:58:12.369Z,2.63
2024-01-06T14:00:39.284Z,2.17
2024-01-06T14:03:08.067Z,2.22
2024-01-06T14:05:36.038Z,2.67
2024-01-06T14:08:03.222Z,2.38
2024-01-06T14:10:32.054Z,2.17
2024-01-06T14:12:59.237Z,1.17
2024-01-06T14:15:27.803Z,1.95
2024-01-06T14:17:54.686Z,2.20
2024-01-06T14:20:21.740Z,3.03
2024-01-06T14:22:50.222Z,2.33
2024-01-06T14:25:20.294Z,1.80
2024-01-06T14:27:47.761Z,2.13
2024-01-06T14:30:14.973Z,1.98
2024-01-06T14:32:42.270Z,2.00
2024-01-06T14:35:12.515Z,2.33
2024-01-06T14:37:39.894Z,1.83
2024-01-06T14:40:08.941Z,1.95
2024-01-06T14:42:37.369Z,2.47
2024-01-06T14:45:05.010Z,3.00
2024-01-06T14:47:33.636Z,1.90
2024-01-06T14:50:00.885Z,1.90
2024-01-06T14:52:28.815Z,2.08
2024-01-06T14:54:55.737Z,2.13
2024-01-06T14:57:22.626Z,2.40
2024-01-06T14:59:49.585Z,2.72
2024-01-06T15:02:18.455Z,2.00
2024-01-06T15:04:45.872Z,2.50
2024-01-06T15:07:12.760Z,2.75
2024-01-06T15:09:41.685Z,3.10
2024-01-06T15:12:08.638Z,3.35
2024-01-06T15:14:35.441Z,2.15
2024-01-06T15:17:02.208Z,2.20
2024-01-06T15:19:31.176Z,2.30
2024-01-06T15:21:58.210Z,1.83
2024-01-06T15:24:25.286Z,2.60
2024-01-06T15:26:53.056Z,1.70
2024-01-06T15:29:20.097Z,3.00
2024-01-06T15:31:47.741Z,3.13
2024-01-06T15:34:14.839Z,3.58
2024-01-06T15:36:41.813Z,3.35
2024-01-06T15:39:08.612Z,3.58
2024-01-06T15:41:35.398Z,3.47
2024-01-06T15:44:02.158Z,4.78
2024-01-06T15:46:28.948Z,3.80
2024-01-06T15:48:55.896Z,3.28
2024-01-06T15:51:24.503Z,2.75
2024-01-06T15:53:51.852Z,2.38
2024-01-06T15:56:19.185Z,2.33
2024-01-06T15:58:45.999Z,2.92
2024-01-06T16:01:13.320Z,3.20
2024-01-06T16:03:41.214Z,2.67
2024-01-06T16:06:08.074Z,1.90
2024-01-06T16:08:36.163Z,3.03
2024-01-06T16:11:03.037Z,3.03
2024-01-06T16:13:29.951Z,2.85
2024-01-06T16:15:56.987Z,3.30
2024-01-06T16:18:24.403Z,3.15
2024-01-06T16:20:51.465Z,3.10
2024-01-06T16:23:18.376Z,3.28
2024-01-06T16:25:45.544Z,2.70
2024-01-06T16:28:13.021Z,2.70
2024-01-06T16:30:40.811Z,2.78
2024-01-06T16:33:08.460Z,2.63
2024-01-06T16:35:36.037Z,2.97
2024-01-06T16:38:03.332Z,3.00
2024-01-06T16:40:30.397Z,3.25
2024-01-06T16:42:57.718Z,2.92
2024-01-06T16:45:24.639Z,2.97
2024-01-06T16:47:51.597Z,3.25
2024-01-06T16:50:18.624Z,3.40
2024-01-06T16:52:45.403Z,2.70
2024-01-06T16:55:12.248Z,3.00
2024-01-06T16:57:39.185Z,3.30
2024-01-06T17:00:06.692Z,3.10
2024-01-06T17:02:33.477Z,3.78
2024-01-06T17:05:00.666Z,3.67
2024-01-06T17:07:27.586Z,3.10
2024-01-06T17:09:56.097Z,2.95
2024-01-06T17:12:23.413Z,3.40
2024-01-06T17:14:50.255Z,2.60
2024-01-06T17:17:17.040Z,2.53
2024-01-06T17:19:44.012Z,3.08
2024-01-06T17:22:10.889Z,2.50
2024-01-06T17:24:37.785Z,2.90
2024-01-06T17:27:04.887Z,3.53
2024-01-06T17:29:31.791Z,3.60
2024-01-06T17:31:59.178Z,3.00
2024-01-06T17:34:26.075Z,3.08
2024-01-06T17:36:53.282Z,2.60
2024-01-06T17:39:20.210Z,3.17
2024-01-06T17:41:56.916Z,3.63
2024-01-06T17:44:26.697Z,3.08
2024-01-06T17:46:54.251Z,3.75
2024-01-06T17:49:21.358Z,3.42
2024-01-06T17:51:48.540Z,3.35
2024-01-06T17:54:15.494Z,3.05
2024-01-06T17:56:42.337Z,2.50
2024-01-06T17:59:09.122Z,2.53
2024-01-06T18:01:37.133Z,2.35
2024-01-06T18:04:04.271Z,2.63
2024-01-06T18:06:31.412Z,2.40
2024-01-06T18:08:59.254Z,2.20
2024-01-06T18:11:26.170Z,2.60
2024-01-06T18:13:53.047Z,2.28
2024-01-06T18:16:19.942Z,2.40
2024-01-06T18:18:46.991Z,2.53
2024-01-06T18:21:13.893Z,2.78
2024-01-06T18:23:40.645Z,2.50
2024-01-06T18:26:07.384Z,2.65
2024-01-06T18:28:34.169Z,3.20
2024-01-06T18:31:01.139Z,2.88
2024-01-06T18:33:28.388Z,2.55
2024-01-06T18:35:55.260Z,2.85
2024-01-06T18:38:22.019Z,2.90
2024-01-06T18:40:48.984Z,3.55
2024-01-06T18:43:15.730Z,3.17
2024-01-06T18:45:43.631Z,3.25
2024-01-06T18:48:11.405Z,3.45
2024-01-06T18:50:39.092Z,3.50
2024-01-06T18:53:05.882Z,3.70
2024-01-06T18:55:32.870Z,4.10
2024-01-06T18:58:00.767Z,3.80
2024-01-06T19:00:28.153Z,4.38
2024-01-06T19:02:55.053Z,5.38
2024-01-06T19:05:22.264Z,4.65
2024-01-06T19:07:49.258Z,4.93
2024-01-06T19:10:16.147Z,5.15
2024-01-06T19:12:42.953Z,5.18
2024-01-06T19:15:09.783Z,4.82
2024-01-06T19:17:37.689Z,5.40
2024-01-06T19:20:05.209Z,4.90
2024-01-06T19:22:31.970Z,5.75
2024-01-06T19:24:58.999Z,5.32
2024-01-06T19:27:25.852Z,5.90
2024-01-06T19:29:54.032Z,6.32
2024-01-06T19:32:21.149Z,5.90
2024-01-06T19:34:51.821Z,6.90
2024-01-06T19:37:18.672Z,6.00
2024-01-06T19:39:45.517Z,7.38
2024-01-06T19:42:12.527Z,6.70
2024-01-06T19:44:40.127Z,7.15
2024-01-06T19:47:09.424Z,7.57
2024-01-06T19:49:36.196Z,7.43
2024-01-06T19:52:03.136Z,7.05
2024-01-06T19:54:33.287Z,7.30
2024-01-06T19:57:00.252Z,7.50
2024-01-06T19:59:27.004Z,8.32
2024-01-06T20:01:53.915Z,8.82
2024-01-06T20:04:20.757Z,8.65
2024-01-06T20:06:47.752Z,7.97
2024-01-06T20:09:14.567Z,9.98
2024-01-06T20:11:41.361Z,9.43
2024-01-06T20:14:08.334Z,10.00
2024-01-06T20:16:35.537Z,10.48
2024-01-06T20:19:02.532Z,9.65
2024-01-06T20:21:29.447Z,10.73
2024-01-06T20:23:56.411Z,11.18
2024-01-06T20:26:23.325Z,9.65
2024-01-06T20:28:50.086Z,10.57
2024-01-06T20:31:19.180Z,10.57
2024-01-06T20:33:46.953Z,10.70
2024-01-06T20:36:15.309Z,9.10
2024-01-06T20:38:42.884Z,10.10
2024-01-06T20:41:10.682Z,10.90
2024-01-06T20:43:38.649Z,9.55
2024-01-06T20:46:05.804Z,10.80
2024-01-06T20:48:32.815Z,11.70
2024-01-06T20:51:02.148Z,9.93
2024-01-06T20:53:29.085Z,10.57
2024-01-06T20:55:55.840Z,10.07
2024-01-06T20:58:22.873Z,10.75
2024-01-06T21:00:49.779Z,11.60
2024-01-06T21:03:16.702Z,12.30
2024-01-06T21:05:43.689Z,11.07
2024-01-06T21:08:10.528Z,11.85
2024-01-06T21:10:37.388Z,11.27
2024-01-06T21:13:04.564Z,10.75
2024-01-06T21:15:31.983Z,11.65
2024-01-06T21:17:58.942Z,11.65
2024-01-06T21:20:25.936Z,11.95
2024-01-06T21:22:52.724Z,11.63
2024-01-06T21:25:24.230Z,13.25
2024-01-06T21:27:52.428Z,13.38
2024-01-06T21:30:20.185Z,11.35
2024-01-06T21:32:47.709Z,12.52
2024-01-06T21:35:15.564Z,13.48
2024-01-06T21:37:42.435Z,14.65
2024-01-06T21:40:10.144Z,13.73
2024-01-06T21:42:37.841Z,13.23
2024-01-06T21:45:05.213Z,13.50
2024-01-06T21:47:32.118Z,13.48
2024-01-06T21:49:59.157Z,12.75
2024-01-06T21:52:25.989Z,12.48
2024-01-06T21:54:52.902Z,13.40
2024-01-06T21:57:20.037Z,13.55
2024-01-06T21:59:46.834Z,12.90
2024-01-06T22:02:13.632Z,13.85
2024-01-06T22:04:42.072Z,14.90
2024-01-06T22:07:08.958Z,13.38
2024-01-06T22:09:35.813Z,13.05
2024-01-06T22:12:02.684Z,14.50
2024-01-06T22:14:30.562Z,15.68
2024-01-06T22:16:57.412Z,13.52
2024-01-06T22:19:24.210Z,14.40
2024-01-06T22:21:51.108Z,12.98
2024-01-06T22:24:18.110Z,13.90
2024-01-06T22:26:46.192Z,13.02
2024-01-06T22:29:13.160Z,12.45
2024-01-06T22:31:44.000Z,13.18
2024-01-06T22:34:13.793Z,12.82
2024-01-06T22:36:41.600Z,12.30
2024-01-06T22:39:11.321Z,13.93
2024-01-06T22:41:38.757Z,13.60
2024-01-06T22:44:05.823Z,14.85
2024-01-06T22:46:32.581Z,14.80
2024-01-06T22:48:59.516Z,14.18
2024-01-06T22:51:26.468Z,14.20
2024-01-06T22:53:53.240Z,13.82
2024-01-06T22:56:20.055Z,14.65
2024-01-06T22:58:46.872Z,15.55
2024-01-06T23:01:14.436Z,14.35
2024-01-06T23:03:41.658Z,14.75
2024-01-06T23:06:09.311Z,13.82
2024-01-06T23:08:36.456Z,15.73
2024-01-06T23:11:04.746Z,15.25
2024-01-06T23:13:31.749Z,15.38
2024-01-06T23:15:59.407Z,16.23
2024-01-06T23:18:26.534Z,15.90
2024-01-06T23:20:53.427Z,17.33
2024-01-06T23:23:20.215Z,16.48
2024-01-06T23:25:47.080Z,15.45
2024-01-06T23:28:14.004Z,15.77
2024-01-06T23:30:42.136Z,15.07
2024-01-06T23:33:09.224Z,15.15
2024-01-06T23:35:36.178Z,15.55
2024-01-06T23:38:02.907Z,15.05
2024-01-06T23:40:29.803Z,15.52
2024-01-06T23:42:56.697Z,14.20
2024-01-06T23:45:23.897Z,16.05
2024-01-06T23:47:54.409Z,15.02
2024-01-06T23:50:21.635Z,16.17
2024-01-06T23:52:48.453Z,16.50
2024-01-06T23:55:16.153Z,15.38
2024-01-06T23:57:42.999Z,15.05
